Time;durP1;ratioP1;P1;durP2;ratioP2;P2;SDS_P1;SDS_P2;PMS_P1;PMS_P2;Temp;Humidity;BMP_temperature;BMP_pressure;BME280_temperature;BME280_humidity;BME280_pressure;Samples;Min_cycle;Max_cycle;Signal;HPM_P1;HPM_P2
2023/09/17 00:01:04;;;;;;;15.97;11.07;;;;;20.70;100866.00;;;;4921507;29;20362;-72
2023/09/17 00:03:51;;;;;;;16.53;11.63;;;;;20.70;100865.00;;;;4923790;29;20240;-73
2023/09/17 00:06:38;;;;;;;15.00;11.73;;;;;20.70;100866.00;;;;4921661;29;20232;-72
2023/09/17 00:09:24;;;;;;;15.70;11.87;;;;;20.60;100868.00;;;;4928374;29;20257;-71
2023/09/17 00:12:10;;;;;;;19.37;11.93;;;;;20.70;100870.00;;;;4917609;29;20612;-73
2023/09/17 00:14:57;;;;;;;16.90;12.10;;;;;20.60;100861.00;;;;4913477;29;20782;-72
2023/09/17 00:17:44;;;;;;;15.97;12.07;;;;;20.60;100864.00;;;;4916463;29;20238;-73
2023/09/17 00:20:31;;;;;;;14.77;11.60;;;;;20.60;100863.00;;;;4917595;29;20236;-74
2023/09/17 00:23:17;;;;;;;18.47;12.20;;;;;20.60;100875.00;;;;4924844;29;22035;-72
2023/09/17 00:26:03;;;;;;;14.93;11.53;;;;;20.50;100891.00;;;;4911285;29;20360;-73
2023/09/17 00:28:50;;;;;;;15.07;11.80;;;;;20.60;100903.00;;;;4920238;28;20234;-73
2023/09/17 00:31:37;;;;;;;12.63;9.53;;;;;20.60;100905.00;;;;4916460;28;20247;-72
2023/09/17 00:34:25;;;;;;;12.80;10.00;;;;;20.60;100907.00;;;;4924142;28;20742;-73
2023/09/17 00:37:12;;;;;;;15.67;9.63;;;;;20.60;100895.00;;;;4919564;28;20239;-70
2023/09/17 00:40:01;;;;;;;13.77;10.43;;;;;20.60;100875.00;;;;4921082;28;20239;-73
2023/09/17 00:42:47;;;;;;;13.77;10.13;;;;;20.60;100872.00;;;;4914023;28;20779;-72
2023/09/17 00:45:34;;;;;;;14.00;10.57;;;;;20.60;100869.00;;;;4926898;29;20239;-74
2023/09/17 00:48:21;;;;;;;16.00;11.77;;;;;20.60;100865.00;;;;4919725;28;20300;-73
2023/09/17 00:51:09;;;;;;;15.03;11.33;;;;;20.60;100865.00;;;;4909336;28;20242;-73
2023/09/17 00:53:59;;;;;;;14.40;11.53;;;;;20.60;100854.00;;;;4916131;29;20692;-73
2023/09/17 00:56:45;;;;;;;16.87;12.03;;;;;20.50;100854.00;;;;4923832;29;20261;-73
2023/09/17 00:59:31;;;;;;;14.07;11.17;;;;;20.50;100863.00;;;;4913729;29;20235;-72
2023/09/17 01:02:20;;;;;;;14.23;10.87;;;;;20.50;100866.00;;;;4912000;28;20303;-69
2023/09/17 01:05:08;;;;;;;14.83;10.80;;;;;20.50;100869.00;;;;4909767;29;20240;-72
2023/09/17 01:07:56;;;;;;;12.43;9.43;;;;;20.40;100867.00;;;;4915550;29;20238;-73
2023/09/17 01:10:42;;;;;;;11.03;8.43;;;;;20.40;100866.00;;;;4915250;29;20240;-72
2023/09/17 01:13:29;;;;;;;16.37;7.90;;;;;20.40;100872.00;;;;4915899;28;20240;-73
2023/09/17 01:16:15;;;;;;;9.93;7.77;;;;;20.30;100862.00;;;;4925867;29;20239;-72
2023/09/17 01:19:03;;;;;;;10.07;7.73;;;;;20.30;100861.00;;;;4928581;29;20326;-75
2023/09/17 01:22:03;;;;;;;9.60;8.10;;;;;20.20;100856.00;;;;4919393;29;20272;-73
2023/09/17 01:25:04;;;;;;;10.43;8.60;;;;;20.10;100853.00;;;;4914079;29;20262;-72
2023/09/17 01:27:52;;;;;;;17.33;9.93;;;;;20.00;100853.00;;;;4923509;28;20255;-74
2023/09/17 01:30:41;;;;;;;13.10;9.90;;;;;20.10;100858.00;;;;4925824;29;20797;-74
2023/09/17 01:33:27;;;;;;;13.20;9.10;;;;;20.00;100865.00;;;;4915283;29;21009;-73
2023/09/17 01:36:20;;;;;;;13.03;9.90;;;;;20.00;100866.00;;;;4914988;29;20614;-72
2023/09/17 01:39:13;;;;;;;14.20;11.10;;;;;20.10;100864.00;;;;4928477;28;20247;-73
2023/09/17 01:42:00;;;;;;;15.37;10.27;;;;;20.10;100861.00;;;;4915320;29;20809;-72
2023/09/17 01:44:49;;;;;;;15.67;10.27;;;;;20.10;100864.00;;;;4919600;29;20248;-73
2023/09/17 01:47:37;;;;;;;15.03;11.23;;;;;20.10;100865.00;;;;4923413;28;20732;-71
2023/09/17 01:50:25;;;;;;;16.60;10.67;;;;;20.10;100874.00;;;;4924081;28;20248;-73
2023/09/17 01:53:12;;;;;;;10.37;7.73;;;;;20.10;100897.00;;;;4928945;29;20638;-73
2023/09/17 01:55:58;;;;;;;9.53;7.73;;;;;20.10;100913.00;;;;4929948;28;20234;-71
2023/09/17 01:58:45;;;;;;;11.70;7.47;;;;;20.00;100917.00;;;;4923323;28;20295;-73
2023/09/17 02:01:32;;;;;;;10.27;7.13;;;;;20.00;100896.00;;;;4924749;29;20234;-73
2023/09/17 02:04:19;;;;;;;12.93;8.97;;;;;19.90;100884.00;;;;4921984;29;20249;-73
2023/09/17 02:07:05;;;;;;;12.77;8.63;;;;;19.90;100890.00;;;;4922792;28;20954;-71
2023/09/17 02:09:52;;;;;;;11.43;8.33;;;;;20.00;100877.00;;;;4919176;28;21017;-72
2023/09/17 02:12:38;;;;;;;12.90;8.80;;;;;20.00;100882.00;;;;4924590;28;20289;-70
2023/09/17 02:15:24;;;;;;;12.97;9.70;;;;;20.00;100871.00;;;;4924333;29;20706;-74
2023/09/17 02:18:12;;;;;;;17.27;9.10;;;;;19.90;100875.00;;;;4918490;29;20233;-74
2023/09/17 02:20:58;;;;;;;12.43;8.90;;;;;20.00;100873.00;;;;4904604;29;20235;-73
2023/09/17 02:23:45;;;;;;;15.17;9.07;;;;;20.00;100876.00;;;;4926995;29;20331;-72
2023/09/17 02:26:31;;;;;;;9.70;7.03;;;;;19.90;100858.00;;;;4918491;29;20254;-71
2023/09/17 02:29:18;;;;;;;10.93;8.03;;;;;19.90;100860.00;;;;4915202;29;20246;-73
2023/09/17 02:32:04;;;;;;;10.83;8.40;;;;;19.80;100857.00;;;;4918168;28;20325;-71
2023/09/17 02:34:52;;;;;;;12.40;8.00;;;;;19.80;100853.00;;;;4923201;28;20242;-72
2023/09/17 02:37:38;;;;;;;13.37;9.83;;;;;19.80;100845.00;;;;4915091;29;20952;-73
2023/09/17 02:40:24;;;;;;;11.70;9.17;;;;;19.80;100836.00;;;;4913206;28;20376;-70
2023/09/17 02:43:11;;;;;;;13.43;9.13;;;;;19.80;100844.00;;;;4919354;29;20250;-72
2023/09/17 02:45:58;;;;;;;12.70;9.67;;;;;19.80;100844.00;;;;4927520;29;20243;-74
2023/09/17 02:48:46;;;;;;;14.23;10.20;;;;;19.80;100828.00;;;;4928829;28;20241;-72
2023/09/17 02:51:34;;;;;;;14.10;10.00;;;;;19.80;100828.00;;;;4922160;29;20339;-72
2023/09/17 02:54:20;;;;;;;16.20;10.33;;;;;19.80;100821.00;;;;4917218;29;20250;-73
2023/09/17 02:57:07;;;;;;;14.93;11.07;;;;;19.70;100818.00;;;;4917805;29;20358;-73
2023/09/17 02:59:54;;;;;;;13.23;10.30;;;;;19.70;100819.00;;;;4922732;29;20260;-73
2023/09/17 03:02:40;;;;;;;15.83;10.53;;;;;19.70;100824.00;;;;4918080;29;20232;-69
2023/09/17 03:05:27;;;;;;;13.63;10.43;;;;;19.70;100826.00;;;;4925910;28;20249;-73
2023/09/17 03:08:15;;;;;;;12.73;9.90;;;;;19.70;100823.00;;;;4917676;29;20274;-75
2023/09/17 03:11:01;;;;;;;13.67;10.20;;;;;19.60;100811.00;;;;4915812;29;20598;-72
2023/09/17 03:13:48;;;;;;;14.77;11.20;;;;;19.60;100803.00;;;;4922986;29;20264;-75
2023/09/17 03:16:35;;;;;;;15.30;10.60;;;;;19.60;100800.00;;;;4920744;29;20241;-72
2023/09/17 03:19:22;;;;;;;15.27;11.20;;;;;19.50;100797.00;;;;4928054;29;20240;-71
2023/09/17 03:22:08;;;;;;;15.67;11.03;;;;;19.50;100795.00;;;;4921138;28;20243;-72
2023/09/17 03:24:56;;;;;;;16.23;11.23;;;;;19.50;100783.00;;;;4919382;29;20244;-72
2023/09/17 03:27:49;;;;;;;17.23;11.23;;;;;19.50;100785.00;;;;4912375;29;20245;-73
2023/09/17 03:30:36;;;;;;;16.53;11.70;;;;;19.50;100793.00;;;;4924325;29;20599;-73
2023/09/17 03:33:22;;;;;;;16.83;11.33;;;;;19.50;100787.00;;;;4921864;29;20237;-76
2023/09/17 03:36:09;;;;;;;14.33;10.87;;;;;19.50;100798.00;;;;4923662;28;20973;-73
2023/09/17 03:38:55;;;;;;;16.80;11.50;;;;;19.50;100792.00;;;;4926471;29;20240;-73
2023/09/17 03:41:42;;;;;;;16.40;11.47;;;;;19.50;100805.00;;;;4914532;29;20737;-74
2023/09/17 03:44:29;;;;;;;15.20;11.70;;;;;19.50;100798.00;;;;4915738;29;20918;-72
2023/09/17 03:47:15;;;;;;;15.63;12.10;;;;;19.60;100803.00;;;;4918873;29;20734;-73
2023/09/17 03:50:04;;;;;;;19.33;12.50;;;;;19.50;100795.00;;;;4926417;28;20245;-73
2023/09/17 03:52:52;;;;;;;17.20;12.30;;;;;19.60;100802.00;;;;4917615;29;20251;-74
2023/09/17 03:55:39;;;;;;;16.70;11.57;;;;;19.50;100794.00;;;;4924618;29;20229;-73
2023/09/17 03:58:27;;;;;;;19.13;12.10;;;;;19.60;100794.00;;;;4915393;29;20743;-75
2023/09/17 04:01:13;;;;;;;17.70;12.70;;;;;19.60;100789.00;;;;4914993;29;20235;-73
2023/09/17 04:04:00;;;;;;;16.97;12.87;;;;;19.60;100796.00;;;;4926316;29;20241;-73
2023/09/17 04:06:46;;;;;;;17.07;12.83;;;;;19.50;100795.00;;;;4924302;28;20237;-73
2023/09/17 04:09:32;;;;;;;16.10;12.53;;;;;19.40;100791.00;;;;4913813;29;20225;-73
2023/09/17 04:12:18;;;;;;;18.47;13.67;;;;;19.40;100793.00;;;;4925356;29;20238;-76
2023/09/17 04:15:12;;;;;;;19.30;13.67;;;;;19.40;100797.00;;;;4916598;29;20243;-73
2023/09/17 04:17:59;;;;;;;15.90;12.33;;;;;19.40;100806.00;;;;4911575;29;20277;-72
2023/09/17 04:20:45;;;;;;;16.23;12.50;;;;;19.50;100800.00;;;;4923491;29;20222;-74
2023/09/17 04:23:31;;;;;;;19.53;13.17;;;;;19.50;100810.00;;;;4914158;29;20240;-71
2023/09/17 04:26:19;;;;;;;18.33;13.50;;;;;19.40;100791.00;;;;4923831;29;20326;-71
2023/09/17 04:29:09;;;;;;;20.13;14.33;;;;;19.40;100787.00;;;;4918554;29;20439;-75
2023/09/17 04:31:57;;;;;;;21.17;14.60;;;;;19.30;100781.00;;;;4921047;29;20240;-73
2023/09/17 04:34:43;;;;;;;19.50;14.27;;;;;19.30;100781.00;;;;4916873;29;20326;-72
2023/09/17 04:37:29;;;;;;;23.87;14.97;;;;;19.20;100772.00;;;;4917137;28;20229;-73
2023/09/17 04:40:18;;;;;;;20.43;14.77;;;;;19.10;100771.00;;;;4917246;28;20253;-73
2023/09/17 04:43:05;;;;;;;28.63;15.70;;;;;19.10;100777.00;;;;4922816;29;20384;-74
2023/09/17 04:45:51;;;;;;;25.87;16.17;;;;;19.10;100773.00;;;;4916351;29;20233;-72
2023/09/17 04:48:39;;;;;;;23.97;15.60;;;;;19.10;100778.00;;;;4922396;28;20735;-72
2023/09/17 04:51:27;;;;;;;20.23;15.20;;;;;19.00;100773.00;;;;4917516;29;20716;-73
2023/09/17 04:54:13;;;;;;;25.27;17.07;;;;;19.00;100780.00;;;;4926389;29;20793;-73
2023/09/17 04:56:59;;;;;;;23.80;16.93;;;;;18.90;100776.00;;;;4920694;29;20230;-73
2023/09/17 04:59:46;;;;;;;22.37;16.27;;;;;18.90;100782.00;;;;4919609;29;20233;-71
2023/09/17 05:02:33;;;;;;;23.73;16.37;;;;;18.90;100777.00;;;;4921810;29;20327;-74
2023/09/17 05:05:21;;;;;;;26.73;17.53;;;;;18.90;100785.00;;;;4918181;29;20248;-72
2023/09/17 05:08:11;;;;;;;22.87;16.50;;;;;18.90;100781.00;;;;4919258;29;20312;-74
2023/09/17 05:10:58;;;;;;;25.20;17.47;;;;;18.90;100761.00;;;;4911078;29;20335;-71
2023/09/17 05:13:44;;;;;;;28.70;16.87;;;;;18.90;100771.00;;;;4924107;29;20262;-72
2023/09/17 05:16:30;;;;;;;26.00;17.13;;;;;18.90;100772.00;;;;4911583;29;20237;-72
2023/09/17 05:19:17;;;;;;;28.37;18.13;;;;;18.90;100768.00;;;;4919631;29;20250;-72
2023/09/17 05:22:05;;;;;;;26.10;18.10;;;;;18.90;100762.00;;;;4923678;29;20237;-70
2023/09/17 05:24:51;;;;;;;27.47;19.37;;;;;18.90;100767.00;;;;4923932;29;20956;-73
2023/09/17 05:27:39;;;;;;;27.17;18.47;;;;;18.90;100768.00;;;;4917812;29;20314;-73
2023/09/17 05:30:26;;;;;;;27.20;18.77;;;;;18.90;100771.00;;;;4923179;29;21018;-72
2023/09/17 05:33:12;;;;;;;27.67;18.77;;;;;18.90;100781.00;;;;4922542;29;20320;-72
2023/09/17 05:35:59;;;;;;;28.90;18.70;;;;;18.90;100788.00;;;;4921470;29;20364;-74
2023/09/17 05:38:47;;;;;;;27.50;18.20;;;;;18.90;100788.00;;;;4910169;29;20237;-72
2023/09/17 05:41:33;;;;;;;27.37;19.23;;;;;18.90;100781.00;;;;4918156;29;20237;-72
2023/09/17 05:44:19;;;;;;;26.90;18.80;;;;;18.90;100789.00;;;;4916518;29;20642;-73
2023/09/17 05:47:06;;;;;;;29.80;19.73;;;;;18.90;100786.00;;;;4919190;29;20710;-73
2023/09/17 05:49:55;;;;;;;31.00;19.63;;;;;18.90;100783.00;;;;4922866;28;20235;-72
2023/09/17 05:52:41;;;;;;;33.33;21.17;;;;;18.90;100778.00;;;;4915524;29;20245;-73
2023/09/17 05:55:29;;;;;;;30.50;20.90;;;;;18.90;100787.00;;;;4914031;29;20237;-72
2023/09/17 05:58:16;;;;;;;30.33;21.10;;;;;18.90;100775.00;;;;4911662;29;20374;-74
2023/09/17 06:01:02;;;;;;;31.07;20.27;;;;;18.90;100781.00;;;;4915257;29;20306;-74
2023/09/17 06:03:48;;;;;;;31.40;20.93;;;;;18.90;100779.00;;;;4913496;29;20316;-72
2023/09/17 06:06:35;;;;;;;32.90;22.10;;;;;18.90;100784.00;;;;4919306;29;20236;-72
2023/09/17 06:09:21;;;;;;;33.10;22.43;;;;;18.90;100780.00;;;;4922219;29;20297;-72
2023/09/17 06:12:09;;;;;;;30.17;21.80;;;;;19.00;100775.00;;;;4926352;28;20237;-72
2023/09/17 06:14:56;;;;;;;33.63;22.50;;;;;18.90;100773.00;;;;4915918;28;20241;-73
2023/09/17 06:17:42;;;;;;;30.83;22.23;;;;;19.00;100766.00;;;;4922731;29;20305;-74
2023/09/17 06:20:29;;;;;;;34.03;21.67;;;;;19.00;100768.00;;;;4917488;29;20233;-73
2023/09/17 06:23:16;;;;;;;32.23;22.27;;;;;19.10;100777.00;;;;4920916;29;20238;-71
2023/09/17 06:26:06;;;;;;;31.57;22.70;;;;;19.30;100778.00;;;;4921134;29;20281;-73
2023/09/17 06:28:56;;;;;;;36.67;23.20;;;;;19.10;100772.00;;;;4923060;29;20229;-73
2023/09/17 06:31:43;;;;;;;32.07;22.87;;;;;19.20;100763.00;;;;4919776;29;20233;-73
2023/09/17 06:34:29;;;;;;;36.50;23.80;;;;;19.10;100765.00;;;;4919858;29;20735;-72
2023/09/17 06:37:15;;;;;;;35.10;23.60;;;;;19.10;100764.00;;;;4919933;28;20627;-74
2023/09/17 06:40:02;;;;;;;34.10;24.43;;;;;19.10;100775.00;;;;4921297;28;20233;-74
2023/09/17 06:42:48;;;;;;;36.80;23.00;;;;;19.20;100766.00;;;;4920089;29;20241;-74
2023/09/17 06:45:36;;;;;;;33.90;22.47;;;;;19.10;100760.00;;;;4923923;29;20241;-72
2023/09/17 06:48:22;;;;;;;41.47;23.50;;;;;19.10;100760.00;;;;4920270;29;20238;-69
2023/09/17 06:51:09;;;;;;;37.73;24.30;;;;;19.00;100761.00;;;;4912310;29;20301;-71
2023/09/17 06:53:55;;;;;;;37.53;23.70;;;;;19.00;100765.00;;;;4918131;29;20256;-70
2023/09/17 06:56:42;;;;;;;35.43;23.63;;;;;19.10;100760.00;;;;4917031;29;20252;-70
2023/09/17 06:59:28;;;;;;;38.47;24.33;;;;;19.10;100752.00;;;;4916594;29;20440;-71
2023/09/17 07:02:16;;;;;;;34.07;22.63;;;;;19.10;100754.00;;;;4922743;29;20233;-69
2023/09/17 07:05:04;;;;;;;36.57;23.17;;;;;19.10;100753.00;;;;4917402;29;20238;-70
2023/09/17 07:07:51;;;;;;;32.67;23.10;;;;;19.10;100755.00;;;;4918826;29;20299;-71
2023/09/17 07:10:38;;;;;;;36.13;24.13;;;;;19.20;100746.00;;;;4912679;29;20234;-73
2023/09/17 07:13:24;;;;;;;35.27;23.23;;;;;19.20;100752.00;;;;4918206;29;20241;-71
2023/09/17 07:16:12;;;;;;;35.37;23.83;;;;;19.30;100753.00;;;;4915992;29;20283;-72
2023/09/17 07:19:00;;;;;;;34.80;23.40;;;;;19.30;100751.00;;;;4919840;29;20239;-73
2023/09/17 07:21:46;;;;;;;36.70;23.77;;;;;19.30;100756.00;;;;4913769;28;20624;-72
2023/09/17 07:24:32;;;;;;;34.47;22.77;;;;;19.40;100760.00;;;;4928106;29;20602;-72
2023/09/17 07:27:19;;;;;;;36.10;23.73;;;;;19.40;100754.00;;;;4919466;29;20313;-72
2023/09/17 07:30:06;;;;;;;39.10;23.83;;;;;19.50;100750.00;;;;4926288;29;20251;-73
2023/09/17 07:32:52;;;;;;;37.00;24.57;;;;;19.60;100747.00;;;;4927870;28;20241;-74
2023/09/17 07:35:41;;;;;;;35.93;23.83;;;;;19.70;100747.00;;;;4915459;28;20645;-72
2023/09/17 07:38:27;;;;;;;35.00;23.93;;;;;19.90;100754.00;;;;4918091;29;20238;-74
2023/09/17 07:41:13;;;;;;;33.27;23.83;;;;;20.00;100751.00;;;;4922184;28;20363;-71
2023/09/17 07:44:00;;;;;;;36.13;23.10;;;;;19.90;100751.00;;;;4918878;29;20305;-73
2023/09/17 07:46:46;;;;;;;33.87;23.37;;;;;20.00;100753.00;;;;4913626;29;20243;-71
2023/09/17 07:49:35;;;;;;;36.03;24.33;;;;;20.20;100751.00;;;;4917353;28;20956;-74
2023/09/17 07:52:24;;;;;;;34.53;22.67;;;;;20.40;100740.00;;;;4919091;28;20244;-75
2023/09/17 07:55:10;;;;;;;33.77;23.83;;;;;20.50;100746.00;;;;4914430;29;20769;-73
2023/09/17 07:57:56;;;;;;;34.77;24.37;;;;;20.50;100745.00;;;;4915337;29;20599;-74
2023/09/17 08:00:45;;;;;;;32.53;23.00;;;;;20.60;100754.00;;;;4924858;28;20734;-71
2023/09/17 08:03:32;;;;;;;32.67;22.77;;;;;20.80;100756.00;;;;4911482;29;20259;-72
2023/09/17 08:06:18;;;;;;;28.93;21.37;;;;;20.90;100753.00;;;;4915181;28;20449;-72
2023/09/17 08:09:06;;;;;;;35.07;22.27;;;;;21.00;100755.00;;;;4922883;29;20233;-72
2023/09/17 08:11:52;;;;;;;29.83;21.67;;;;;21.00;100765.00;;;;4917640;29;20239;-73
2023/09/17 08:14:45;;;;;;;28.90;20.17;;;;;21.00;100762.00;;;;4923970;29;20239;-69
2023/09/17 08:17:31;;;;;;;30.90;21.20;;;;;21.00;100755.00;;;;4915194;29;20222;-72
2023/09/17 08:20:18;;;;;;;31.00;21.23;;;;;21.10;100762.00;;;;4908690;29;20229;-74
2023/09/17 08:23:04;;;;;;;28.50;20.20;;;;;21.10;100763.00;;;;4920075;28;20233;-73
2023/09/17 08:25:52;;;;;;;27.80;18.97;;;;;21.20;100769.00;;;;4919481;29;20419;-74
2023/09/17 08:28:42;;;;;;;26.73;20.03;;;;;21.30;100753.00;;;;4911743;29;20684;-73
2023/09/17 08:31:28;;;;;;;27.13;18.53;;;;;21.40;100759.00;;;;4913550;29;20368;-73
2023/09/17 08:34:15;;;;;;;27.33;18.60;;;;;21.50;100763.00;;;;4925641;29;20247;-74
2023/09/17 08:37:03;;;;;;;26.13;18.73;;;;;21.60;100767.00;;;;4915988;29;20596;-71
2023/09/17 08:39:49;;;;;;;24.77;17.77;;;;;21.80;100765.00;;;;4918055;29;20734;-74
2023/09/17 08:42:38;;;;;;;30.63;19.00;;;;;21.80;100771.00;;;;4910119;29;20225;-75
2023/09/17 08:45:26;;;;;;;26.60;18.57;;;;;21.90;100765.00;;;;4913000;29;20248;-71
2023/09/17 08:48:13;;;;;;;24.37;18.07;;;;;21.90;100765.00;;;;4911359;29;20221;-73
2023/09/17 08:51:00;;;;;;;28.03;18.93;;;;;22.10;100767.00;;;;4918331;28;20361;-72
2023/09/17 08:53:56;;;;;;;23.63;17.07;;;;;22.20;100767.00;;;;4916311;28;20240;-72
2023/09/17 08:56:45;;;;;;;21.80;16.77;;;;;22.40;100759.00;;;;4921172;29;20244;-72
2023/09/17 08:59:36;;;;;;;22.50;16.03;;;;;22.60;100753.00;;;;4915375;29;20240;-71
2023/09/17 09:02:27;;;;;;;18.70;14.17;;;;;22.70;100760.00;;;;4919657;29;20241;-72
2023/09/17 09:05:15;;;;;;;17.97;13.50;;;;;22.80;100754.00;;;;4925381;28;20237;-73
2023/09/17 09:08:03;;;;;;;16.47;12.47;;;;;22.90;100751.00;;;;4923891;29;20734;-72
2023/09/17 09:10:50;;;;;;;17.70;13.20;;;;;23.00;100751.00;;;;4916307;29;20253;-72
2023/09/17 09:13:38;;;;;;;15.77;11.67;;;;;23.10;100756.00;;;;4914221;29;20218;-74
2023/09/17 09:16:28;;;;;;;14.17;11.00;;;;;23.20;100751.00;;;;4926082;29;20236;-72
2023/09/17 09:19:14;;;;;;;14.50;9.60;;;;;23.20;100751.00;;;;4919967;29;20244;-73
2023/09/17 09:22:00;;;;;;;11.87;9.37;;;;;23.30;100750.00;;;;4920663;29;20229;-72
2023/09/17 09:24:47;;;;;;;11.57;8.67;;;;;23.30;100749.00;;;;4920629;28;20240;-72
2023/09/17 09:27:34;;;;;;;11.23;8.47;;;;;23.60;100748.00;;;;4918016;28;20272;-71
2023/09/17 09:30:20;;;;;;;12.97;8.30;;;;;23.70;100744.00;;;;4919649;29;20232;-70
2023/09/17 09:33:08;;;;;;;9.83;7.30;;;;;23.90;100739.00;;;;4924044;29;20236;-74
2023/09/17 09:35:54;;;;;;;8.07;7.27;;;;;24.00;100751.00;;;;4920055;29;20236;-70
2023/09/17 09:38:41;;;;;;;9.57;6.73;;;;;23.90;100743.00;;;;4925167;29;20284;-72
2023/09/17 09:41:32;;;;;;;10.37;6.97;;;;;23.80;100751.00;;;;4920792;28;20234;-71
2023/09/17 09:44:25;;;;;;;10.27;7.20;;;;;23.80;100759.00;;;;4923847;29;20629;-73
2023/09/17 09:47:14;;;;;;;7.17;6.20;;;;;24.10;100759.00;;;;4925245;29;20312;-73
2023/09/17 09:50:01;;;;;;;10.27;5.80;;;;;24.40;100749.00;;;;4922641;28;20955;-72
2023/09/17 09:52:48;;;;;;;6.70;5.53;;;;;24.70;100744.00;;;;4925901;28;20248;-67
2023/09/17 09:55:34;;;;;;;6.10;5.50;;;;;25.00;100740.00;;;;4922795;29;20718;-73
2023/09/17 09:58:20;;;;;;;6.22;5.18;;;;;25.10;100747.00;;;;4926292;29;20286;-74
2023/09/17 10:01:07;;;;;;;7.00;5.20;;;;;25.20;100743.00;;;;4914273;29;20603;-73
2023/09/17 10:03:58;;;;;;;6.40;5.10;;;;;25.20;100749.00;;;;4921741;29;20232;-71
2023/09/17 10:06:46;;;;;;;6.80;4.90;;;;;25.20;100741.00;;;;4913920;29;20241;-73
2023/09/17 10:09:33;;;;;;;7.30;4.80;;;;;25.30;100742.00;;;;4922209;29;20254;-73
2023/09/17 10:12:22;;;;;;;5.40;4.70;;;;;25.50;100741.00;;;;4921833;29;20386;-72
2023/09/17 10:15:09;;;;;;;5.95;4.32;;;;;25.60;100745.00;;;;4921067;29;20722;-73
2023/09/17 10:17:57;;;;;;;7.00;4.30;;;;;25.70;100751.00;;;;4923971;29;20245;-71
2023/09/17 10:20:45;;;;;;;5.15;4.38;;;;;25.60;100754.00;;;;4926786;28;20518;-71
2023/09/17 10:23:34;;;;;;;6.60;5.10;;;;;25.30;100743.00;;;;4917226;29;20722;-73
2023/09/17 10:26:22;;;;;;;5.05;4.40;;;;;25.10;100745.00;;;;4922964;29;20804;-74
2023/09/17 10:29:09;;;;;;;4.60;4.13;;;;;25.10;100755.00;;;;4916586;29;20233;-73
2023/09/17 10:31:56;;;;;;;5.60;4.30;;;;;25.20;100748.00;;;;4917394;29;20296;-72
2023/09/17 10:34:43;;;;;;;5.63;4.28;;;;;25.30;100755.00;;;;4920733;29;20659;-72
2023/09/17 10:37:31;;;;;;;6.00;4.27;;;;;25.50;100741.00;;;;4918463;29;20244;-68
2023/09/17 10:40:19;;;;;;;6.78;4.28;;;;;25.50;100747.00;;;;4917772;28;20234;-72
2023/09/17 10:43:08;;;;;;;6.50;4.15;;;;;25.60;100741.00;;;;4909277;29;20241;-75
2023/09/17 10:45:56;;;;;;;4.35;3.88;;;;;25.80;100747.00;;;;4913328;29;20240;-72
2023/09/17 10:48:43;;;;;;;7.13;3.95;;;;;25.90;100737.00;;;;4916170;28;20241;-74
2023/09/17 10:51:29;;;;;;;6.65;4.38;;;;;25.90;100748.00;;;;4918731;29;20241;-71
2023/09/17 10:54:15;;;;;;;6.50;4.15;;;;;26.00;100739.00;;;;4927162;29;20796;-71
2023/09/17 10:57:09;;;;;;;5.78;4.88;;;;;25.80;100742.00;;;;4919079;29;21520;-71
2023/09/17 10:59:58;;;;;;;6.25;4.18;;;;;25.30;100735.00;;;;4918248;29;20226;-73
2023/09/17 11:02:52;;;;;;;5.90;4.57;;;;;25.20;100740.00;;;;4924376;28;20253;-72
2023/09/17 11:05:40;;;;;;;5.35;4.28;;;;;25.00;100746.00;;;;4920100;29;20231;-72
2023/09/17 11:08:27;;;;;;;6.13;4.70;;;;;24.90;100736.00;;;;4918855;29;20986;-70
2023/09/17 11:11:14;;;;;;;5.90;4.57;;;;;25.00;100734.00;;;;4921468;29;20310;-71
2023/09/17 11:14:03;;;;;;;6.70;4.88;;;;;25.20;100744.00;;;;4929076;29;20260;-69
2023/09/17 11:16:49;;;;;;;10.38;4.72;;;;;25.40;100734.00;;;;4915007;29;20818;-72
2023/09/17 11:19:35;;;;;;;8.23;5.00;;;;;25.50;100735.00;;;;4924191;29;20362;-70
2023/09/17 11:22:21;;;;;;;5.72;5.13;;;;;25.50;100737.00;;;;4924827;28;20309;-68
2023/09/17 11:25:10;;;;;;;6.38;4.85;;;;;25.30;100745.00;;;;4926646;29;20241;-72
2023/09/17 11:27:57;;;;;;;5.85;4.95;;;;;25.30;100742.00;;;;4928128;29;20252;-71
2023/09/17 11:30:58;;;;;;;7.57;4.70;;;;;25.20;100742.00;;;;4916185;29;20236;-72
2023/09/17 11:33:48;;;;;;;5.15;4.63;;;;;25.00;100746.00;;;;4918972;29;20253;-72
2023/09/17 11:36:35;;;;;;;5.07;4.55;;;;;25.00;100737.00;;;;4924808;29;20255;-71
2023/09/17 11:39:22;;;;;;;5.97;4.68;;;;;25.10;100738.00;;;;4923455;29;20296;-72
2023/09/17 11:42:13;;;;;;;5.15;4.65;;;;;25.20;100739.00;;;;4916736;28;20373;-70
2023/09/17 11:45:00;;;;;;;5.87;4.90;;;;;25.30;100744.00;;;;4912034;29;20370;-70
2023/09/17 11:47:47;;;;;;;7.15;4.30;;;;;25.40;100744.00;;;;4923532;29;20240;-71
2023/09/17 11:50:35;;;;;;;8.35;4.60;;;;;25.40;100737.00;;;;4925342;28;20232;-69
2023/09/17 11:53:21;;;;;;;5.20;4.55;;;;;25.70;100747.00;;;;4920122;29;20619;-71
2023/09/17 11:56:08;;;;;;;5.82;4.00;;;;;26.10;100742.00;;;;4918391;29;20288;-72
2023/09/17 11:59:01;;;;;;;4.43;4.00;;;;;26.50;100751.00;;;;4917863;29;20312;-72
2023/09/17 12:01:52;;;;;;;4.78;4.03;;;;;26.70;100737.00;;;;4923086;28;20357;-68
2023/09/17 12:04:42;;;;;;;6.53;4.20;;;;;26.90;100738.00;;;;4919328;28;20232;-72
2023/09/17 12:07:30;;;;;;;5.70;4.10;;;;;27.10;100746.00;;;;4926144;29;20713;-72
2023/09/17 12:10:40;;;;;;;6.70;4.10;;;;;27.10;100736.00;;;;4920089;29;20245;-72
2023/09/17 12:13:29;;;;;;;4.38;3.97;;;;;26.70;100741.00;;;;4926672;29;20702;-70
2023/09/17 12:16:16;;;;;;;6.20;4.40;;;;;26.50;100737.00;;;;4925011;29;20224;-72
2023/09/17 12:19:03;;;;;;;5.80;3.85;;;;;26.60;100749.00;;;;4920605;29;20343;-72
2023/09/17 12:21:59;;;;;;;4.75;4.20;;;;;26.50;100752.00;;;;4920404;29;20229;-69
2023/09/17 12:25:19;;;;;;;5.50;3.95;;;;;26.60;100748.00;;;;4912808;28;20305;-71
2023/09/17 12:28:06;;;;;;;8.85;4.10;;;;;26.90;100747.00;;;;4917509;29;20232;-72
2023/09/17 12:30:52;;;;;;;5.65;3.90;;;;;27.20;100749.00;;;;4913771;28;20296;-72
2023/09/17 12:33:39;;;;;;;3.92;3.45;;;;;27.60;100746.00;;;;4916841;29;20233;-71
2023/09/17 12:36:26;;;;;;;4.25;3.78;;;;;27.70;100735.00;;;;4912179;29;20233;-72
2023/09/17 12:39:13;;;;;;;4.22;3.60;;;;;27.90;100733.00;;;;4923226;28;20236;-72
2023/09/17 12:42:00;;;;;;;3.92;3.53;;;;;28.00;100738.00;;;;4918039;28;20237;-72
2023/09/17 12:44:47;;;;;;;5.38;3.40;;;;;27.90;100729.00;;;;4911658;29;20302;-72
2023/09/17 12:47:33;;;;;;;4.03;3.58;;;;;28.00;100732.00;;;;4927164;29;20236;-73
2023/09/17 12:50:20;;;;;;;5.50;3.72;;;;;28.20;100736.00;;;;4925915;28;20255;-70
2023/09/17 12:53:07;;;;;;;5.82;3.67;;;;;28.30;100737.00;;;;4928183;29;20260;-72
2023/09/17 12:55:58;;;;;;;4.63;3.70;;;;;28.50;100725.00;;;;4915230;29;20241;-70
2023/09/17 12:58:49;;;;;;;4.57;3.40;;;;;28.60;100728.00;;;;4917031;29;20324;-73
2023/09/17 13:01:35;;;;;;;3.70;3.33;;;;;28.20;100735.00;;;;4925879;29;20232;-72
2023/09/17 13:04:32;;;;;;;4.78;3.80;;;;;28.40;100723.00;;;;4922690;29;20240;-73
2023/09/17 13:07:20;;;;;;;3.85;3.50;;;;;28.70;100725.00;;;;4913160;29;20793;-71
2023/09/17 13:10:09;;;;;;;6.03;3.72;;;;;28.90;100713.00;;;;4924053;28;20235;-73
2023/09/17 13:12:57;;;;;;;4.28;3.47;;;;;29.10;100720.00;;;;4921509;28;20232;-71
2023/09/17 13:15:43;;;;;;;4.95;3.40;;;;;29.40;100726.00;;;;4918815;29;20627;-70
2023/09/17 13:18:29;;;;;;;3.97;3.55;;;;;29.20;100727.00;;;;4922556;29;20232;-75
2023/09/17 13:21:17;;;;;;;4.32;3.80;;;;;29.20;100733.00;;;;4928217;29;20232;-73
2023/09/17 13:24:03;;;;;;;6.25;4.00;;;;;29.10;100724.00;;;;4922841;29;20244;-73
2023/09/17 13:26:49;;;;;;;4.63;4.10;;;;;28.80;100729.00;;;;4922683;29;20803;-71
2023/09/17 13:29:40;;;;;;;4.63;4.13;;;;;28.50;100725.00;;;;4923441;29;20305;-73
2023/09/17 13:32:28;;;;;;;4.40;4.00;;;;;28.20;100729.00;;;;4920449;29;20331;-74
2023/09/17 13:35:19;;;;;;;4.55;4.15;;;;;28.10;100729.00;;;;4926927;28;20236;-71